Time;durP1;ratioP1;P1;durP2;ratioP2;P2;SDS_P1;SDS_P2;PMS_P1;PMS_P2;Temp;Humidity;BMP_temperature;BMP_pressure;BME280_temperature;BME280_humidity;BME280_pressure;Samples;Min_cycle;Max_cycle;Signal;HPM_P1;HPM_P2
2023/12/16 00:00:54;;;;;;;11.80;3.20;;;7.00;99.90;;;;;;5052264;28;20044;-71
2023/12/16 00:03:20;;;;;;;10.15;2.53;;;7.00;99.90;;;;;;5075138;28;20056;-71
2023/12/16 00:05:47;;;;;;;13.60;2.50;;;7.10;99.90;;;;;;5051299;28;20036;-69
2023/12/16 00:08:13;;;;;;;9.73;2.60;;;7.10;99.90;;;;;;5054277;28;21169;-71
2023/12/16 00:10:38;;;;;;;9.73;2.38;;;7.10;1.00;;;;;;5050166;28;20036;-70
2023/12/16 00:13:04;;;;;;;8.93;3.03;;;7.10;99.90;;;;;;5058483;28;20485;-70
2023/12/16 00:15:30;;;;;;;12.70;2.45;;;7.10;1.00;;;;;;5052289;28;20129;-69
2023/12/16 00:17:55;;;;;;;12.82;3.17;;;7.10;99.90;;;;;;5051365;28;20572;-73
2023/12/16 00:20:21;;;;;;;11.75;2.80;;;7.10;99.90;;;;;;5054891;28;20040;-71
2023/12/16 00:22:46;;;;;;;7.97;2.88;;;7.10;99.90;;;;;;5034364;28;20062;-71
2023/12/16 00:25:12;;;;;;;7.15;2.50;;;7.10;1.00;;;;;;5059231;28;20400;-72
2023/12/16 00:27:38;;;;;;;13.65;2.70;;;7.10;1.00;;;;;;5065963;28;20131;-72
2023/12/16 00:30:05;;;;;;;13.55;2.90;;;7.10;1.00;;;;;;5052617;28;20049;-71
2023/12/16 00:32:31;;;;;;;11.63;3.10;;;7.00;1.00;;;;;;5058582;28;20366;-70
2023/12/16 00:34:56;;;;;;;10.07;2.60;;;7.00;1.00;;;;;;5047600;28;20048;-71
2023/12/16 00:37:22;;;;;;;8.13;2.45;;;7.10;99.90;;;;;;5065350;28;20037;-69
2023/12/16 00:39:48;;;;;;;8.63;2.47;;;7.10;99.90;;;;;;5054265;28;22485;-71
2023/12/16 00:42:13;;;;;;;10.27;2.55;;;7.00;99.90;;;;;;5040328;28;20032;-70
2023/12/16 00:44:39;;;;;;;8.35;3.10;;;7.10;99.90;;;;;;5046936;28;20089;-71
2023/12/16 00:47:05;;;;;;;8.65;2.78;;;7.10;99.90;;;;;;5046718;28;20085;-69
2023/12/16 00:49:30;;;;;;;8.63;2.60;;;7.00;99.90;;;;;;5045994;28;20036;-69
2023/12/16 00:51:56;;;;;;;8.38;2.65;;;7.10;99.90;;;;;;5047004;28;20546;-70
2023/12/16 00:54:22;;;;;;;8.95;2.53;;;6.90;99.90;;;;;;5050709;28;20085;-71
2023/12/16 00:56:49;;;;;;;10.55;2.58;;;6.90;99.90;;;;;;5057067;28;20082;-71
2023/12/16 00:59:15;;;;;;;11.65;3.28;;;6.90;99.90;;;;;;5035418;28;20044;-70
2023/12/16 01:01:41;;;;;;;8.82;2.85;;;6.90;99.90;;;;;;5048370;28;20145;-71
2023/12/16 01:04:07;;;;;;;13.88;2.00;;;6.90;99.90;;;;;;5048955;28;20067;-71
2023/12/16 01:06:32;;;;;;;8.93;2.47;;;6.90;99.90;;;;;;5054253;28;20039;-71
2023/12/16 01:08:58;;;;;;;7.95;2.33;;;6.90;99.90;;;;;;5051829;28;20066;-71
2023/12/16 01:11:24;;;;;;;9.23;2.70;;;6.90;99.90;;;;;;5057011;28;20033;-71
2023/12/16 01:13:50;;;;;;;8.45;2.08;;;7.00;99.90;;;;;;5048405;28;20033;-71
2023/12/16 01:16:15;;;;;;;8.40;3.03;;;6.90;99.90;;;;;;5055529;28;20448;-70
2023/12/16 01:18:41;;;;;;;10.13;2.47;;;6.80;99.90;;;;;;5055619;28;20041;-71
2023/12/16 01:21:08;;;;;;;8.52;2.40;;;6.80;99.90;;;;;;5047601;28;20033;-70
2023/12/16 01:23:34;;;;;;;8.38;2.60;;;6.80;99.90;;;;;;5052763;28;20048;-71
2023/12/16 01:26:00;;;;;;;11.60;2.65;;;6.80;99.90;;;;;;5052698;28;20044;-70
2023/12/16 01:28:26;;;;;;;7.05;2.28;;;6.80;99.90;;;;;;5041935;28;20369;-70
2023/12/16 01:30:52;;;;;;;6.72;2.75;;;6.70;99.90;;;;;;5060053;28;20461;-70
2023/12/16 01:33:18;;;;;;;11.07;2.88;;;6.70;99.90;;;;;;5066487;28;20033;-70
2023/12/16 01:35:43;;;;;;;7.72;2.40;;;6.70;99.90;;;;;;5052720;28;20143;-70
2023/12/16 01:38:09;;;;;;;9.48;2.97;;;6.60;99.90;;;;;;5054002;28;20037;-73
2023/12/16 01:40:37;;;;;;;10.32;2.60;;;6.50;99.90;;;;;;5067897;28;20076;-71
2023/12/16 01:43:07;;;;;;;11.68;2.80;;;6.60;99.90;;;;;;5052695;28;20059;-72
2023/12/16 01:45:32;;;;;;;8.93;2.95;;;6.60;99.90;;;;;;5054789;28;20044;-71
2023/12/16 01:47:59;;;;;;;8.80;2.30;;;6.50;99.90;;;;;;5043476;28;20040;-70
2023/12/16 01:50:26;;;;;;;12.40;2.80;;;6.50;99.90;;;;;;5045320;28;20033;-70
2023/12/16 01:52:53;;;;;;;7.38;2.40;;;6.50;99.90;;;;;;5043006;28;20056;-71
2023/12/16 01:55:19;;;;;;;10.20;2.65;;;6.50;99.90;;;;;;5052695;28;20054;-72
2023/12/16 01:57:46;;;;;;;9.32;2.58;;;6.50;99.90;;;;;;5067323;28;20152;-73
2023/12/16 02:00:13;;;;;;;11.00;2.55;;;6.50;99.90;;;;;;5057075;28;20128;-71
2023/12/16 02:02:40;;;;;;;10.45;2.90;;;6.40;99.90;;;;;;5068609;28;20051;-71
2023/12/16 02:05:06;;;;;;;7.70;2.28;;;6.40;99.90;;;;;;5057735;28;20145;-71
2023/12/16 02:07:32;;;;;;;7.65;2.92;;;6.40;99.90;;;;;;5051718;28;20048;-71
2023/12/16 02:09:58;;;;;;;11.48;2.63;;;6.30;99.90;;;;;;5074083;28;20114;-71
2023/12/16 02:12:26;;;;;;;10.68;3.47;;;6.30;99.90;;;;;;5056519;28;20055;-72
2023/12/16 02:14:52;;;;;;;13.20;2.55;;;6.20;99.90;;;;;;5057663;28;20064;-71
2023/12/16 02:17:18;;;;;;;10.65;2.65;;;6.30;99.90;;;;;;5055854;28;20144;-71
2023/12/16 02:19:45;;;;;;;9.32;2.58;;;6.30;99.90;;;;;;5053724;28;20039;-71
2023/12/16 02:22:11;;;;;;;10.48;2.33;;;6.20;99.90;;;;;;5030220;28;20496;-72
2023/12/16 02:24:38;;;;;;;10.52;2.50;;;6.10;99.90;;;;;;5054517;28;20048;-71
2023/12/16 02:27:04;;;;;;;7.13;2.53;;;6.20;99.90;;;;;;5057432;28;20037;-71
2023/12/16 02:29:30;;;;;;;9.27;2.20;;;6.20;99.90;;;;;;5054237;28;20575;-71
2023/12/16 02:31:55;;;;;;;12.20;2.50;;;6.20;99.90;;;;;;5051673;28;20049;-71
2023/12/16 02:34:23;;;;;;;10.55;2.58;;;6.10;99.90;;;;;;5049952;28;20047;-71
2023/12/16 02:36:49;;;;;;;14.13;3.33;;;6.00;99.90;;;;;;5035621;28;20029;-71
2023/12/16 02:39:15;;;;;;;7.43;2.40;;;6.10;99.90;;;;;;5033719;28;20051;-71
2023/12/16 02:41:40;;;;;;;10.40;2.40;;;6.00;99.90;;;;;;5071145;28;20088;-70
2023/12/16 02:44:06;;;;;;;8.65;2.50;;;6.00;99.90;;;;;;5035682;28;20033;-71
2023/12/16 02:46:32;;;;;;;8.55;2.38;;;6.10;99.90;;;;;;5050553;28;20043;-69
2023/12/16 02:48:57;;;;;;;7.30;2.22;;;5.90;99.90;;;;;;5033579;28;20056;-71
2023/12/16 02:51:23;;;;;;;6.70;2.45;;;6.00;99.90;;;;;;5049044;28;20032;-70
2023/12/16 02:53:49;;;;;;;5.68;2.22;;;6.00;99.90;;;;;;5049826;28;20029;-72
2023/12/16 02:56:14;;;;;;;15.80;2.75;;;5.90;99.90;;;;;;5052474;28;20546;-69
2023/12/16 02:58:40;;;;;;;10.82;3.10;;;5.90;99.90;;;;;;5053527;28;20048;-70
2023/12/16 03:01:06;;;;;;;11.98;2.53;;;5.90;99.90;;;;;;5051269;28;20752;-71
2023/12/16 03:03:32;;;;;;;8.35;2.70;;;5.90;99.90;;;;;;5061684;28;20051;-69
2023/12/16 03:06:04;;;;;;;10.40;2.95;;;5.90;99.90;;;;;;5032455;28;20044;-71
2023/12/16 03:08:29;;;;;;;10.27;2.85;;;5.80;99.90;;;;;;5051075;28;20360;-71
2023/12/16 03:10:55;;;;;;;11.73;3.13;;;5.70;99.90;;;;;;5071672;28;20127;-71
2023/12/16 03:13:21;;;;;;;9.15;2.42;;;5.60;99.90;;;;;;5066108;28;20400;-71
2023/12/16 03:15:46;;;;;;;7.63;2.85;;;5.70;99.90;;;;;;5037522;28;20484;-68
2023/12/16 03:18:12;;;;;;;10.27;2.40;;;5.60;99.90;;;;;;5040132;28;20437;-71
2023/12/16 03:20:37;;;;;;;11.00;3.25;;;5.60;99.90;;;;;;5034432;28;20044;-69
2023/12/16 03:23:03;;;;;;;9.85;2.47;;;5.60;99.90;;;;;;5049531;28;20068;-71
2023/12/16 03:25:28;;;;;;;7.78;2.70;;;5.60;99.90;;;;;;5055489;28;20135;-69
2023/12/16 03:27:54;;;;;;;18.58;3.58;;;5.50;99.90;;;;;;5056358;28;20044;-70
2023/12/16 03:30:20;;;;;;;11.77;2.83;;;5.60;99.90;;;;;;5050401;28;20060;-71
2023/12/16 03:32:46;;;;;;;12.25;2.47;;;5.60;99.90;;;;;;5059318;28;20453;-69
2023/12/16 03:35:11;;;;;;;7.97;2.92;;;5.50;99.90;;;;;;5055784;28;20506;-70
2023/12/16 03:37:37;;;;;;;8.77;2.80;;;5.50;99.90;;;;;;5051303;28;20029;-70
2023/12/16 03:40:03;;;;;;;16.42;3.42;;;5.40;99.90;;;;;;5034620;28;20033;-71
2023/12/16 03:42:29;;;;;;;10.93;3.40;;;5.30;1.00;;;;;;5051351;28;20079;-71
2023/12/16 03:44:55;;;;;;;9.02;3.15;;;5.40;99.90;;;;;;5049906;28;20124;-71
2023/12/16 03:47:20;;;;;;;10.68;3.08;;;5.40;99.90;;;;;;5055283;28;21029;-70
2023/12/16 03:49:46;;;;;;;9.25;2.92;;;5.30;99.90;;;;;;5052414;28;20509;-70
2023/12/16 03:52:11;;;;;;;11.20;2.55;;;5.30;99.90;;;;;;5028409;28;20036;-69
2023/12/16 03:54:37;;;;;;;10.27;2.63;;;5.30;99.90;;;;;;5043883;28;20539;-69
2023/12/16 03:57:03;;;;;;;12.00;3.33;;;5.30;99.90;;;;;;5066930;28;20465;-70
2023/12/16 03:59:29;;;;;;;6.28;2.53;;;5.30;99.90;;;;;;5066186;28;20052;-70
2023/12/16 04:01:55;;;;;;;10.00;2.85;;;5.20;99.90;;;;;;5049646;28;20052;-70
2023/12/16 04:04:20;;;;;;;9.25;3.00;;;5.20;99.90;;;;;;5059453;28;20051;-71
2023/12/16 04:06:46;;;;;;;14.20;2.92;;;5.20;1.00;;;;;;5063067;28;20032;-71
2023/12/16 04:09:12;;;;;;;10.10;2.25;;;5.20;99.90;;;;;;5071901;28;20119;-70
2023/12/16 04:11:48;;;;;;;16.48;3.42;;;5.10;99.90;;;;;;5059025;28;20552;-69
2023/12/16 04:14:14;;;;;;;11.07;3.20;;;5.20;99.90;;;;;;5057477;28;20032;-70
2023/12/16 04:16:40;;;;;;;12.50;2.80;;;5.20;99.90;;;;;;5047902;28;20051;-71
2023/12/16 04:19:05;;;;;;;11.32;2.53;;;5.10;99.90;;;;;;5052678;28;20052;-71
2023/12/16 04:21:32;;;;;;;10.75;3.20;;;5.20;99.90;;;;;;5062078;28;20055;-71
2023/12/16 04:23:58;;;;;;;10.57;3.58;;;5.30;99.90;;;;;;5048800;28;20519;-70
2023/12/16 04:26:24;;;;;;;10.20;3.50;;;5.30;99.90;;;;;;5044778;28;20047;-70
2023/12/16 04:28:50;;;;;;;14.55;4.28;;;5.30;99.90;;;;;;5050293;28;20041;-71
2023/12/16 04:31:17;;;;;;;12.02;3.00;;;5.40;99.90;;;;;;5071398;28;20044;-72
2023/12/16 04:33:46;;;;;;;17.58;3.15;;;5.30;99.90;;;;;;5054027;28;20040;-71
2023/12/16 04:36:16;;;;;;;13.18;3.28;;;5.30;99.90;;;;;;5072670;28;20028;-70
2023/12/16 04:38:45;;;;;;;9.00;2.95;;;5.30;99.90;;;;;;5058008;28;20637;-70
2023/12/16 04:41:12;;;;;;;7.93;2.85;;;5.30;99.90;;;;;;5054198;28;20040;-70
2023/12/16 04:43:38;;;;;;;8.80;2.80;;;5.30;99.90;;;;;;5066940;28;20032;-71
2023/12/16 04:46:03;;;;;;;12.05;2.80;;;5.40;99.90;;;;;;5061460;28;20031;-70
2023/12/16 04:48:29;;;;;;;12.27;2.80;;;5.40;99.90;;;;;;5058270;28;20853;-70
2023/12/16 04:50:54;;;;;;;14.15;2.88;;;5.30;99.90;;;;;;5068121;28;20411;-70
2023/12/16 04:53:20;;;;;;;10.35;2.92;;;5.40;99.90;;;;;;5047868;28;20048;-70
2023/12/16 04:55:46;;;;;;;16.42;3.60;;;5.30;99.90;;;;;;5033223;28;20040;-70
2023/12/16 04:58:11;;;;;;;13.13;3.00;;;5.40;99.90;;;;;;5051385;28;20047;-71
2023/12/16 05:00:37;;;;;;;12.93;2.85;;;5.40;99.90;;;;;;5067404;28;20044;-70
2023/12/16 05:03:03;;;;;;;12.07;2.67;;;5.40;99.90;;;;;;5057657;28;20036;-71
2023/12/16 05:05:29;;;;;;;11.43;2.78;;;5.40;99.90;;;;;;5063816;28;20403;-68
2023/12/16 05:07:54;;;;;;;13.93;3.05;;;5.40;99.90;;;;;;5058177;28;20119;-70
2023/12/16 05:10:20;;;;;;;11.55;2.83;;;5.40;99.90;;;;;;5051713;28;20040;-71
2023/12/16 05:12:46;;;;;;;12.70;3.15;;;5.40;99.90;;;;;;5053041;28;20070;-71
2023/12/16 05:15:12;;;;;;;10.73;2.63;;;5.40;99.90;;;;;;5046179;28;20029;-71
2023/12/16 05:17:38;;;;;;;13.38;3.20;;;5.40;99.90;;;;;;5056828;28;20074;-70
2023/12/16 05:20:04;;;;;;;15.73;3.20;;;5.50;99.90;;;;;;5055076;28;20081;-69
2023/12/16 05:22:33;;;;;;;9.43;2.50;;;5.50;99.90;;;;;;5039907;28;20611;-73
2023/12/16 05:25:01;;;;;;;12.93;3.03;;;5.50;99.90;;;;;;5061585;28;20255;-74
2023/12/16 05:27:27;;;;;;;9.68;3.35;;;5.50;99.90;;;;;;5051565;28;20120;-72
2023/12/16 05:29:53;;;;;;;13.07;3.03;;;5.50;99.90;;;;;;5052699;28;20056;-72
2023/12/16 05:32:19;;;;;;;12.63;3.10;;;5.50;99.90;;;;;;5039978;28;20044;-72
2023/12/16 05:34:44;;;;;;;10.93;3.80;;;5.50;99.90;;;;;;5039841;28;20040;-74
2023/12/16 05:37:10;;;;;;;15.68;3.80;;;5.60;99.90;;;;;;5063483;28;20044;-71
2023/12/16 05:39:35;;;;;;;16.35;2.72;;;5.60;99.90;;;;;;5063969;28;20060;-72
2023/12/16 05:42:01;;;;;;;14.88;3.20;;;5.50;99.90;;;;;;5046244;28;20077;-71
2023/12/16 05:44:27;;;;;;;9.65;2.92;;;5.50;99.90;;;;;;5060413;28;20040;-71
2023/12/16 05:46:52;;;;;;;12.43;3.17;;;5.50;99.90;;;;;;5059101;28;20048;-73
2023/12/16 05:49:18;;;;;;;13.00;3.45;;;5.50;99.90;;;;;;5078800;28;20044;-71
2023/12/16 05:51:43;;;;;;;17.73;4.55;;;5.60;99.90;;;;;;5066618;28;20061;-73
2023/12/16 05:54:09;;;;;;;13.02;2.92;;;5.50;99.90;;;;;;5035974;28;20031;-73
2023/12/16 05:56:35;;;;;;;12.43;3.17;;;5.60;99.90;;;;;;5073216;28;20101;-72
2023/12/16 05:59:00;;;;;;;16.85;3.28;;;5.60;99.90;;;;;;5056490;28;20143;-72
2023/12/16 06:01:26;;;;;;;13.90;4.13;;;5.60;99.90;;;;;;5073601;28;20040;-73
2023/12/16 06:03:52;;;;;;;18.75;3.97;;;5.60;99.90;;;;;;5053810;28;20051;-73
2023/12/16 06:06:18;;;;;;;16.55;3.83;;;5.60;99.90;;;;;;5045755;28;22350;-74
2023/12/16 06:08:44;;;;;;;11.68;3.45;;;5.60;99.90;;;;;;5046805;28;20060;-72
2023/12/16 06:11:13;;;;;;;14.35;3.10;;;5.70;99.90;;;;;;5067703;28;20059;-71
2023/12/16 06:13:39;;;;;;;12.68;4.35;;;5.60;99.90;;;;;;5043930;28;20124;-72
2023/12/16 06:16:07;;;;;;;16.70;4.50;;;5.70;99.90;;;;;;5043651;28;20054;-72
2023/12/16 06:18:36;;;;;;;19.98;4.22;;;5.70;99.90;;;;;;5055385;28;20431;-71
2023/12/16 06:21:02;;;;;;;16.40;4.03;;;5.60;99.90;;;;;;5052659;28;20085;-71
2023/12/16 06:23:30;;;;;;;18.20;4.43;;;5.60;99.90;;;;;;5063614;28;20044;-72
2023/12/16 06:25:56;;;;;;;22.63;4.28;;;5.60;1.00;;;;;;5065973;28;20480;-72
2023/12/16 06:28:21;;;;;;;13.52;4.05;;;5.80;99.90;;;;;;5057069;28;20093;-72
2023/12/16 06:30:47;;;;;;;21.38;4.47;;;5.70;1.00;;;;;;5052758;28;20040;-72
2023/12/16 06:33:13;;;;;;;16.80;4.03;;;5.80;99.90;;;;;;5042840;28;20068;-73
2023/12/16 06:35:39;;;;;;;13.30;3.63;;;5.90;99.90;;;;;;5053087;28;20047;-72
2023/12/16 06:38:04;;;;;;;29.60;6.70;;;5.90;1.00;;;;;;5053908;28;20060;-76
2023/12/16 06:40:31;;;;;;;16.23;4.38;;;6.00;99.90;;;;;;5067429;28;20048;-72
2023/12/16 06:42:57;;;;;;;19.33;4.78;;;6.00;99.90;;;;;;5038635;28;20055;-73
2023/12/16 06:45:23;;;;;;;15.57;4.55;;;6.10;99.90;;;;;;5052315;28;20525;-73
2023/12/16 06:47:49;;;;;;;19.20;4.25;;;6.10;99.90;;;;;;5077250;28;20040;-73
2023/12/16 06:50:14;;;;;;;10.80;3.90;;;6.10;99.90;;;;;;5064441;28;20064;-73
2023/12/16 06:52:40;;;;;;;17.17;4.72;;;6.10;99.90;;;;;;5066038;28;20041;-72
2023/12/16 06:55:06;;;;;;;15.52;4.15;;;6.10;99.90;;;;;;5039955;28;20066;-73
2023/12/16 06:57:32;;;;;;;15.85;4.03;;;6.20;99.90;;;;;;5063928;28;20032;-71
2023/12/16 06:59:58;;;;;;;15.73;4.65;;;6.20;99.90;;;;;;5066894;28;20075;-73
2023/12/16 07:02:25;;;;;;;23.25;4.38;;;6.20;99.90;;;;;;5063885;28;20060;-73
2023/12/16 07:04:51;;;;;;;24.42;4.47;;;6.20;99.90;;;;;;5054259;28;20097;-73
2023/12/16 07:07:16;;;;;;;16.23;5.05;;;6.20;99.90;;;;;;5062006;28;20035;-72
2023/12/16 07:09:42;;;;;;;15.95;4.55;;;6.30;99.90;;;;;;5064824;28;20044;-72
2023/12/16 07:12:08;;;;;;;18.73;4.50;;;6.30;99.90;;;;;;5075867;28;20047;-73
2023/12/16 07:14:38;;;;;;;21.55;4.20;;;6.30;99.90;;;;;;5074195;28;20059;-72
2023/12/16 07:17:03;;;;;;;19.08;4.95;;;6.30;99.90;;;;;;5073807;28;20032;-73
2023/12/16 07:19:31;;;;;;;18.50;4.53;;;6.40;99.90;;;;;;5074149;28;20159;-74
2023/12/16 07:21:57;;;;;;;14.15;4.95;;;6.40;99.90;;;;;;5067098;28;20075;-73
2023/12/16 07:24:23;;;;;;;20.33;5.53;;;6.40;99.90;;;;;;5076372;28;20197;-72
2023/12/16 07:26:49;;;;;;;15.45;4.60;;;6.40;99.90;;;;;;5057520;28;20093;-73
2023/12/16 07:29:14;;;;;;;19.42;5.10;;;6.50;99.90;;;;;;5062972;28;20116;-73
2023/12/16 07:31:40;;;;;;;22.00;5.68;;;6.50;99.90;;;;;;5055944;28;20119;-79
2023/12/16 07:34:06;;;;;;;15.75;4.70;;;6.50;99.90;;;;;;5074116;28;20071;-71
2023/12/16 07:36:32;;;;;;;19.33;5.30;;;6.50;99.90;;;;;;5065758;28;20028;-72
2023/12/16 07:38:58;;;;;;;21.58;5.70;;;6.50;99.90;;;;;;5079200;28;20415;-72
2023/12/16 07:41:24;;;;;;;19.52;5.50;;;6.60;99.90;;;;;;5058405;28;20123;-75
2023/12/16 07:43:50;;;;;;;23.00;5.10;;;6.60;99.90;;;;;;5081094;28;20032;-69
2023/12/16 07:46:16;;;;;;;19.17;5.30;;;6.70;99.90;;;;;;5055165;28;20601;-70
2023/12/16 07:48:45;;;;;;;25.00;5.22;;;6.70;99.90;;;;;;5065764;28;20426;-73
2023/12/16 07:51:14;;;;;;;21.77;6.30;;;6.70;99.90;;;;;;5050889;28;20040;-72
2023/12/16 07:53:42;;;;;;;17.27;5.38;;;6.70;99.90;;;;;;5059839;28;20044;-71
2023/12/16 07:56:15;;;;;;;21.20;5.57;;;6.70;99.90;;;;;;5074361;28;20040;-71
2023/12/16 07:58:40;;;;;;;19.52;5.05;;;6.70;99.90;;;;;;5059403;28;20052;-72
2023/12/16 08:01:06;;;;;;;21.15;5.03;;;6.70;99.90;;;;;;5054641;28;20047;-72
2023/12/16 08:03:32;;;;;;;22.85;5.72;;;6.70;99.90;;;;;;5059498;28;20065;-76
2023/12/16 08:05:57;;;;;;;19.08;5.93;;;6.70;99.90;;;;;;5070201;28;20380;-72
2023/12/16 08:08:23;;;;;;;18.08;5.35;;;6.70;99.90;;;;;;5075983;28;20036;-70
2023/12/16 08:10:52;;;;;;;21.70;6.30;;;6.70;99.90;;;;;;5072044;28;20475;-72
2023/12/16 08:13:17;;;;;;;22.05;5.78;;;6.70;99.90;;;;;;5066442;28;20141;-73
2023/12/16 08:15:43;;;;;;;19.67;5.63;;;6.60;99.90;;;;;;5067790;28;20082;-72
2023/12/16 08:18:11;;;;;;;21.23;5.47;;;6.70;99.90;;;;;;5075194;28;20040;-71
2023/12/16 08:20:36;;;;;;;23.80;6.00;;;6.70;99.90;;;;;;5053735;28;20539;-72
2023/12/16 08:23:05;;;;;;;21.75;5.72;;;6.70;99.90;;;;;;5061292;28;20166;-72
2023/12/16 08:25:31;;;;;;;17.45;5.60;;;6.70;99.90;;;;;;5069786;28;20072;-71
2023/12/16 08:27:56;;;;;;;24.27;5.90;;;6.70;99.90;;;;;;5057799;28;20056;-72
2023/12/16 08:30:22;;;;;;;24.85;7.00;;;6.70;99.90;;;;;;5073238;28;20123;-73
2023/12/16 08:32:48;;;;;;;25.88;6.00;;;6.70;99.90;;;;;;5055969;28;20040;-72
2023/12/16 08:35:17;;;;;;;23.58;6.28;;;6.70;99.90;;;;;;5052295;28;20163;-72
2023/12/16 08:37:43;;;;;;;23.73;6.03;;;6.70;99.90;;;;;;5057396;28;20036;-73
2023/12/16 08:40:12;;;;;;;33.05;6.88;;;6.80;99.90;;;;;;5076326;28;20297;-73
2023/12/16 08:42:42;;;;;;;29.20;8.35;;;6.80;99.90;;;;;;5053669;28;20032;-72
2023/12/16 08:45:09;;;;;;;21.08;6.22;;;6.80;99.90;;;;;;5052768;28;20040;-71
2023/12/16 08:47:34;;;;;;;28.02;6.95;;;6.80;99.90;;;;;;5072555;28;20044;-73
2023/12/16 08:50:00;;;;;;;20.15;5.75;;;6.80;99.90;;;;;;5071832;28;20119;-74
2023/12/16 08:52:27;;;;;;;24.10;5.68;;;6.80;99.90;;;;;;5061595;28;20036;-73
2023/12/16 08:54:53;;;;;;;27.02;7.15;;;6.90;99.90;;;;;;5036499;28;20120;-75
2023/12/16 08:57:18;;;;;;;31.88;6.78;;;6.90;99.90;;;;;;5059605;28;20127;-71
2023/12/16 08:59:44;;;;;;;28.80;6.88;;;6.90;99.90;;;;;;5059240;28;20484;-74
2023/12/16 09:02:10;;;;;;;33.42;6.63;;;6.90;99.90;;;;;;5065715;28;20469;-71
2023/12/16 09:04:36;;;;;;;24.85;6.40;;;6.90;99.90;;;;;;5069038;28;20037;-70
2023/12/16 09:07:02;;;;;;;29.13;7.22;;;7.00;99.90;;;;;;5052849;28;20051;-72
2023/12/16 09:09:27;;;;;;;26.13;6.57;;;7.00;1.00;;;;;;5058970;28;20045;-75
2023/12/16 09:11:53;;;;;;;28.95;7.55;;;6.90;99.90;;;;;;5062704;28;20429;-72
2023/12/16 09:14:19;;;;;;;22.35;6.82;;;6.90;99.90;;;;;;5067220;28;20040;-72
2023/12/16 09:16:44;;;;;;;31.00;6.60;;;7.00;1.00;;;;;;5063430;28;20036;-72
2023/12/16 09:19:11;;;;;;;29.73;7.70;;;7.00;1.00;;;;;;5048687;28;20082;-72
2023/12/16 09:21:37;;;;;;;30.42;6.72;;;7.00;1.00;;;;;;5045751;28;20483;-73
2023/12/16 09:24:05;;;;;;;33.25;8.40;;;7.00;1.00;;;;;;5054702;28;20044;-73
2023/12/16 09:26:30;;;;;;;27.48;6.63;;;7.00;1.00;;;;;;5039729;28;20043;-73
2023/12/16 09:28:56;;;;;;;22.38;6.95;;;7.00;1.00;;;;;;5070925;28;20034;-74
2023/12/16 09:31:22;;;;;;;34.35;7.15;;;7.00;1.00;;;;;;5068504;28;20734;-74
2023/12/16 09:33:47;;;;;;;30.23;8.65;;;7.00;1.00;;;;;;5035893;28;20097;-71
2023/12/16 09:36:13;;;;;;;28.90;7.85;;;7.00;81.70;;;;;;5054512;28;20093;-73
2023/12/16 09:38:40;;;;;;;28.00;7.97;;;7.00;72.10;;;;;;5060442;28;20074;-71
2023/12/16 09:41:21;;;;;;;28.75;7.78;;;6.90;99.90;;;;;;5069326;28;20468;-72
2023/12/16 09:43:52;;;;;;;30.30;8.98;;;6.90;99.90;;;;;;5072777;28;20054;-72
2023/12/16 09:46:26;;;;;;;30.80;8.32;;;6.90;99.90;;;;;;5065610;28;20115;-72
2023/12/16 09:48:53;;;;;;;31.63;7.95;;;6.90;99.90;;;;;;5053089;28;20037;-72
2023/12/16 09:51:20;;;;;;;27.42;8.75;;;6.90;99.90;;;;;;5053598;28;20060;-72
2023/12/16 09:53:46;;;;;;;29.25;9.02;;;6.90;99.90;;;;;;5067336;28;20373;-73
2023/12/16 09:56:12;;;;;;;27.92;8.32;;;7.00;99.90;;;;;;5052219;28;20032;-72
2023/12/16 09:58:40;;;;;;;44.78;10.25;;;7.00;99.90;;;;;;5053495;28;20044;-72
2023/12/16 10:01:08;;;;;;;42.15;9.88;;;7.00;99.90;;;;;;5036790;28;20119;-70
2023/12/16 10:03:33;;;;;;;32.55;10.00;;;7.00;99.90;;;;;;5052667;28;20059;-72
2023/12/16 10:06:01;;;;;;;26.63;8.52;;;7.00;99.90;;;;;;5070927;28;20032;-71
2023/12/16 10:08:26;;;;;;;38.13;9.73;;;7.00;99.90;;;;;;5057456;28;20044;-74
2023/12/16 10:10:58;;;;;;;35.30;9.27;;;7.00;99.90;;;;;;5052705;28;20055;-72
2023/12/16 10:13:25;;;;;;;33.70;9.02;;;7.00;99.90;;;;;;5059515;28;20052;-72
2023/12/16 10:15:51;;;;;;;39.40;10.10;;;6.90;99.90;;;;;;5058936;28;20391;-72
2023/12/16 10:18:17;;;;;;;37.55;10.30;;;6.90;99.90;;;;;;5058906;28;20175;-75
2023/12/16 10:20:43;;;;;;;44.22;11.93;;;7.00;99.90;;;;;;5060760;28;20115;-72
2023/12/16 10:23:10;;;;;;;33.50;10.05;;;7.00;1.00;;;;;;5079285;28;20174;-73
2023/12/16 10:25:36;;;;;;;34.72;10.55;;;6.90;1.00;;;;;;5059000;28;20052;-77
2023/12/16 10:28:02;;;;;;;38.83;12.35;;;7.00;1.00;;;;;;5063311;28;20048;-73
2023/12/16 10:30:31;;;;;;;46.63;11.10;;;7.00;1.00;;;;;;5058754;28;20135;-74
2023/12/16 10:32:57;;;;;;;39.90;10.13;;;7.10;1.00;;;;;;5055018;28;20037;-73
2023/12/16 10:35:23;;;;;;;37.25;11.88;;;7.00;1.00;;;;;;5036630;28;20044;-73
2023/12/16 10:37:50;;;;;;;51.17;13.10;;;7.10;1.00;;;;;;5068917;28;20119;-74
2023/12/16 10:40:17;;;;;;;38.42;12.30;;;7.10;1.00;;;;;;5070079;28;20028;-71
2023/12/16 10:42:43;;;;;;;34.97;11.40;;;7.10;1.00;;;;;;5068116;28;20086;-75
2023/12/16 10:45:12;;;;;;;41.75;11.90;;;7.20;1.00;;;;;;5069768;28;20033;-73
2023/12/16 10:47:39;;;;;;;49.83;12.80;;;7.20;21.60;;;;;;5068017;28;20048;-72
2023/12/16 10:50:09;;;;;;;54.65;13.75;;;7.20;50.50;;;;;;5057750;28;20029;-74
2023/12/16 10:52:59;;;;;;;47.13;13.35;;;7.20;71.50;;;;;;5052032;28;20778;-75
2023/12/16 10:55:31;;;;;;;34.05;11.35;;;7.30;83.90;;;;;;5049611;28;20044;-72
2023/12/16 10:58:26;;;;;;;37.55;13.20;;;7.30;95.40;;;;;;5066699;28;20047;-74
2023/12/16 11:00:52;;;;;;;36.63;12.90;;;7.30;99.50;;;;;;5053902;28;20400;-73
2023/12/16 11:03:32;;;;;;;48.40;14.13;;;7.30;99.90;;;;;;5070203;28;20099;-72
2023/12/16 11:06:07;;;;;;;40.72;13.18;;;7.40;99.90;;;;;;5053556;28;20036;-71
2023/12/16 11:08:35;;;;;;;43.20;13.88;;;7.40;99.90;;;;;;5067593;28;20115;-72
2023/12/16 11:11:02;;;;;;;42.08;14.07;;;7.30;96.60;;;;;;5055143;28;20476;-73
2023/12/16 11:13:28;;;;;;;41.65;13.63;;;7.40;80.30;;;;;;5054361;28;20040;-72
2023/12/16 11:16:02;;;;;;;44.80;13.50;;;7.40;81.20;;;;;;5057376;28;20063;-74
2023/12/16 11:18:30;;;;;;;40.97;12.63;;;7.40;78.00;;;;;;5071004;28;20041;-73
2023/12/16 11:21:04;;;;;;;44.50;14.13;;;7.40;86.10;;;;;;5069570;28;20037;-73
2023/12/16 11:23:30;;;;;;;46.45;14.50;;;7.40;94.00;;;;;;5062476;28;20060;-71
2023/12/16 11:26:01;;;;;;;40.70;13.82;;;7.40;96.20;;;;;;5057545;28;20036;-73
2023/12/16 11:28:28;;;;;;;39.35;13.77;;;7.50;88.00;;;;;;5074700;28;20032;-72
2023/12/16 11:30:57;;;;;;;40.15;13.73;;;7.50;47.30;;;;;;5071987;28;20496;-73
2023/12/16 11:33:22;;;;;;;41.63;13.75;;;7.50;56.00;;;;;;5066844;28;20076;-72
2023/12/16 11:35:53;;;;;;;42.53;13.57;;;7.50;60.80;;;;;;5041037;28;20741;-76
2023/12/16 11:38:42;;;;;;;33.05;13.48;;;7.50;57.00;;;;;;5069059;28;20045;-74
2023/12/16 11:41:09;;;;;;;33.22;13.20;;;7.50;67.00;;;;;;5071236;28;20106;-73
2023/12/16 11:43:52;;;;;;;39.30;14.52;;;7.50;68.30;;;;;;5067568;28;20033;-74
2023/12/16 11:46:40;;;;;;;37.38;14.00;;;7.50;82.30;;;;;;5054608;28;20342;-73
2023/12/16 11:49:11;;;;;;;34.25;14.32;;;7.50;88.70;;;;;;5051506;28;20186;-73
2023/12/16 11:51:38;;;;;;;35.30;13.35;;;7.50;93.40;;;;;;5049158;28;20420;-72
2023/12/16 11:54:05;;;;;;;40.30;13.77;;;7.50;95.20;;;;;;5044388;28;20045;-72
2023/12/16 11:56:31;;;;;;;41.90;14.43;;;7.60;99.90;;;;;;5060520;28;20041;-77
2023/12/16 11:58:57;;;;;;;41.65;14.90;;;7.60;99.90;;;;;;5049843;28;20044;-73
2023/12/16 12:01:33;;;;;;;34.47;12.88;;;7.60;99.90;;;;;;5070383;28;20040;-73
2023/12/16 12:04:02;;;;;;;35.13;13.77;;;7.60;99.90;;;;;;5069122;28;20044;-74
2023/12/16 12:06:28;;;;;;;39.00;12.90;;;7.60;99.90;;;;;;5062647;28;20445;-76
2023/12/16 12:08:54;;;;;;;29.55;12.25;;;7.60;99.90;;;;;;5061546;28;20543;-72
2023/12/16 12:11:22;;;;;;;33.53;12.57;;;7.60;99.90;;;;;;5053199;28;20037;-74
2023/12/16 12:13:51;;;;;;;33.20;13.25;;;7.70;99.90;;;;;;5059157;28;20032;-76
2023/12/16 12:16:17;;;;;;;33.53;12.73;;;7.70;99.90;;;;;;5062104;28;20036;-74
2023/12/16 12:18:43;;;;;;;36.92;13.32;;;7.70;99.90;;;;;;5043590;28;20040;-74
2023/12/16 12:21:10;;;;;;;31.80;13.00;;;7.70;99.90;;;;;;5076534;28;20044;-74
2023/12/16 12:23:40;;;;;;;34.88;13.05;;;7.70;99.90;;;;;;5072807;28;20048;-73
2023/12/16 12:26:06;;;;;;;;;;;7.70;99.90;;;;;;5067434;28;20363;-75
2023/12/16 12:28:32;;;;;;;31.13;12.98;;;7.70;99.90;;;;;;5060222;28;19999;-74
2023/12/16 12:31:06;;;;;;;35.22;13.43;;;7.60;99.90;;;;;;5069957;28;20059;-73
2023/12/16 12:33:32;;;;;;;27.55;12.10;;;7.70;99.90;;;;;;5067726;28;20504;-75
2023/12/16 12:35:58;;;;;;;27.13;11.65;;;7.70;99.90;;;;;;5061716;28;20037;-71
2023/12/16 12:38:24;;;;;;;34.22;12.45;;;7.70;99.90;;;;;;5059875;28;20037;-73
2023/12/16 12:41:01;;;;;;;31.40;12.23;;;7.70;99.90;;;;;;5068579;28;20036;-76
2023/12/16 12:43:29;;;;;;;28.48;12.40;;;7.70;99.90;;;;;;5069194;28;20139;-74
2023/12/16 12:46:07;;;;;;;29.23;11.30;;;7.70;99.90;;;;;;5049184;28;20045;-72